Whiteriver, Arizona
Current Conditions -  °F | °C
As of 12:35 PM on Thursday 27 Nov 2014 (Local Time) from KSOW Reporting Station
Clear Clear  
Wind Chill: 14°   Ceiling: Unl
Heat Index: 14°   Visibility: 10mi
Dew Point: -9°   Wind: 3mph
Humidity: 20%   Direction: 50°NE
Pressure: 30.42"   Gusts: NA
Location:  33.84°N, 109.96°W
Report Text: KSOW 271935Z AUTO 05003KT 10SM CLR 14/M09 A3042 RMK AO2
Loading
Personal Weather Stations






























Interactive Weather Map New forecast layout! Learn more

10-Day Weather Forecast

Advertisements
Track Severe Weather on mobile